sensor_id;sensor_type;location;lat;lon;timestamp;temperature;humidity
70682;SHT31;58261;48.228;11.686;2022-09-09T00:02:58;18.0;68
70682;SHT31;58261;48.228;11.686;2022-09-09T00:06:17;17.8;69
70682;SHT31;58261;48.228;11.686;2022-09-09T00:09:39;17.8;69
70682;SHT31;58261;48.228;11.686;2022-09-09T00:12:57;17.8;69
70682;SHT31;58261;48.228;11.686;2022-09-09T00:16:17;17.8;69
70682;SHT31;58261;48.228;11.686;2022-09-09T00:19:38;17.8;69
70682;SHT31;58261;48.228;11.686;2022-09-09T00:22:57;17.8;69
70682;SHT31;58261;48.228;11.686;2022-09-09T00:26:18;17.8;69
70682;SHT31;58261;48.228;11.686;2022-09-09T00:29:38;17.6;70
70682;SHT31;58261;48.228;11.686;2022-09-09T00:32:58;17.6;70
70682;SHT31;58261;48.228;11.686;2022-09-09T00:36:17;17.6;70
70682;SHT31;58261;48.228;11.686;2022-09-09T00:39:36;17.4;70
70682;SHT31;58261;48.228;11.686;2022-09-09T00:43:02;17.4;70
70682;SHT31;58261;48.228;11.686;2022-09-09T00:46:21;17.4;70
70682;SHT31;58261;48.228;11.686;2022-09-09T00:49:39;17.3;71
70682;SHT31;58261;48.228;11.686;2022-09-09T00:52:59;17.3;71
70682;SHT31;58261;48.228;11.686;2022-09-09T00:56:17;17.3;71
70682;SHT31;58261;48.228;11.686;2022-09-09T00:59:40;17.3;70
70682;SHT31;58261;48.228;11.686;2022-09-09T01:06:16;17.3;70
70682;SHT31;58261;48.228;11.686;2022-09-09T01:09:38;17.3;70
70682;SHT31;58261;48.228;11.686;2022-09-09T01:12:56;17.3;71
70682;SHT31;58261;48.228;11.686;2022-09-09T01:16:16;17.3;71
70682;SHT31;58261;48.228;11.686;2022-09-09T01:19:39;17.3;71
70682;SHT31;58261;48.228;11.686;2022-09-09T01:23:00;17.2;71
70682;SHT31;58261;48.228;11.686;2022-09-09T01:26:18;17.2;71
70682;SHT31;58261;48.228;11.686;2022-09-09T01:29:36;17.2;71
70682;SHT31;58261;48.228;11.686;2022-09-09T01:32:56;17.2;71
70682;SHT31;58261;48.228;11.686;2022-09-09T01:36:19;17.2;71
70682;SHT31;58261;48.228;11.686;2022-09-09T01:39:37;17.2;71
70682;SHT31;58261;48.228;11.686;2022-09-09T01:42:56;17.2;71
70682;SHT31;58261;48.228;11.686;2022-09-09T01:46:16;17.2;71
70682;SHT31;58261;48.228;11.686;2022-09-09T01:49:36;17.2;71
70682;SHT31;58261;48.228;11.686;2022-09-09T01:52:57;17.2;71
70682;SHT31;58261;48.228;11.686;2022-09-09T01:56:20;17.2;71
70682;SHT31;58261;48.228;11.686;2022-09-09T01:59:40;17.2;71
70682;SHT31;58261;48.228;11.686;2022-09-09T02:02:59;17.2;71
70682;SHT31;58261;48.228;11.686;2022-09-09T02:06:19;17.1;71
70682;SHT31;58261;48.228;11.686;2022-09-09T02:09:36;17.1;71
70682;SHT31;58261;48.228;11.686;2022-09-09T02:12:58;17.1;71
70682;SHT31;58261;48.228;11.686;2022-09-09T02:16:18;17.1;71
70682;SHT31;58261;48.228;11.686;2022-09-09T02:19:36;17.1;71
70682;SHT31;58261;48.228;11.686;2022-09-09T02:22:56;17.1;71
70682;SHT31;58261;48.228;11.686;2022-09-09T02:26:16;17.0;71
70682;SHT31;58261;48.228;11.686;2022-09-09T02:29:37;17.0;71
70682;SHT31;58261;48.228;11.686;2022-09-09T02:32:56;17.0;71
70682;SHT31;58261;48.228;11.686;2022-09-09T02:36:16;17.0;71
70682;SHT31;58261;48.228;11.686;2022-09-09T02:39:36;17.0;71
70682;SHT31;58261;48.228;11.686;2022-09-09T02:42:56;17.0;71
70682;SHT31;58261;48.228;11.686;2022-09-09T02:46:22;17.0;71
70682;SHT31;58261;48.228;11.686;2022-09-09T02:49:39;16.8;71
70682;SHT31;58261;48.228;11.686;2022-09-09T02:53:00;16.8;71
70682;SHT31;58261;48.228;11.686;2022-09-09T02:56:16;16.8;71
70682;SHT31;58261;48.228;11.686;2022-09-09T02:59:36;16.8;71
70682;SHT31;58261;48.228;11.686;2022-09-09T03:02:56;16.8;71
70682;SHT31;58261;48.228;11.686;2022-09-09T03:06:16;16.8;71
70682;SHT31;58261;48.228;11.686;2022-09-09T03:09:36;16.8;72
70682;SHT31;58261;48.228;11.686;2022-09-09T03:12:56;16.8;72
70682;SHT31;58261;48.228;11.686;2022-09-09T03:16:16;16.8;72
70682;SHT31;58261;48.228;11.686;2022-09-09T03:19:36;16.8;72
70682;SHT31;58261;48.228;11.686;2022-09-09T03:22:56;16.8;72
70682;SHT31;58261;48.228;11.686;2022-09-09T03:26:16;16.8;72
70682;SHT31;58261;48.228;11.686;2022-09-09T03:29:36;16.8;72
70682;SHT31;58261;48.228;11.686;2022-09-09T03:32:56;16.8;72
70682;SHT31;58261;48.228;11.686;2022-09-09T03:36:16;16.8;72
70682;SHT31;58261;48.228;11.686;2022-09-09T03:39:36;16.8;72
70682;SHT31;58261;48.228;11.686;2022-09-09T03:42:56;16.8;72
70682;SHT31;58261;48.228;11.686;2022-09-09T03:46:16;16.8;72
70682;SHT31;58261;48.228;11.686;2022-09-09T03:49:36;16.8;72
70682;SHT31;58261;48.228;11.686;2022-09-09T03:52:56;16.8;72
70682;SHT31;58261;48.228;11.686;2022-09-09T03:56:16;16.7;72
70682;SHT31;58261;48.228;11.686;2022-09-09T03:59:36;16.7;72
70682;SHT31;58261;48.228;11.686;2022-09-09T04:02:56;16.7;72
70682;SHT31;58261;48.228;11.686;2022-09-09T04:06:16;16.7;73
70682;SHT31;58261;48.228;11.686;2022-09-09T04:09:36;16.7;73
70682;SHT31;58261;48.228;11.686;2022-09-09T04:12:56;16.7;73
70682;SHT31;58261;48.228;11.686;2022-09-09T04:16:16;16.7;73
70682;SHT31;58261;48.228;11.686;2022-09-09T04:19:36;16.7;73
70682;SHT31;58261;48.228;11.686;2022-09-09T04:22:56;16.7;73
70682;SHT31;58261;48.228;11.686;2022-09-09T04:26:16;16.7;74
70682;SHT31;58261;48.228;11.686;2022-09-09T04:29:36;16.7;74
70682;SHT31;58261;48.228;11.686;2022-09-09T04:32:56;16.7;74
70682;SHT31;58261;48.228;11.686;2022-09-09T04:36:17;16.7;74
70682;SHT31;58261;48.228;11.686;2022-09-09T04:39:36;16.7;74
70682;SHT31;58261;48.228;11.686;2022-09-09T04:42:57;16.7;74
70682;SHT31;58261;48.228;11.686;2022-09-09T04:46:16;16.7;74
70682;SHT31;58261;48.228;11.686;2022-09-09T04:49:36;16.7;74
70682;SHT31;58261;48.228;11.686;2022-09-09T04:52:56;16.7;74
70682;SHT31;58261;48.228;11.686;2022-09-09T04:56:17;16.7;74
70682;SHT31;58261;48.228;11.686;2022-09-09T04:59:36;16.6;74
70682;SHT31;58261;48.228;11.686;2022-09-09T05:02:56;16.6;74
70682;SHT31;58261;48.228;11.686;2022-09-09T05:06:17;16.6;74
70682;SHT31;58261;48.228;11.686;2022-09-09T05:09:36;16.6;74
70682;SHT31;58261;48.228;11.686;2022-09-09T05:12:56;16.6;74
70682;SHT31;58261;48.228;11.686;2022-09-09T05:16:16;16.6;74
70682;SHT31;58261;48.228;11.686;2022-09-09T05:19:36;16.6;74
70682;SHT31;58261;48.228;11.686;2022-09-09T05:22:56;16.5;74
70682;SHT31;58261;48.228;11.686;2022-09-09T05:26:17;16.5;74
70682;SHT31;58261;48.228;11.686;2022-09-09T05:29:36;16.5;74
70682;SHT31;58261;48.228;11.686;2022-09-09T05:32:56;16.5;75
70682;SHT31;58261;48.228;11.686;2022-09-09T05:36:17;16.5;75
70682;SHT31;58261;48.228;11.686;2022-09-09T05:39:36;16.5;75
70682;SHT31;58261;48.228;11.686;2022-09-09T05:42:59;16.5;75
70682;SHT31;58261;48.228;11.686;2022-09-09T05:46:17;16.5;75
70682;SHT31;58261;48.228;11.686;2022-09-09T05:49:36;16.5;75
70682;SHT31;58261;48.228;11.686;2022-09-09T05:52:56;16.5;75
70682;SHT31;58261;48.228;11.686;2022-09-09T05:56:17;16.5;75
70682;SHT31;58261;48.228;11.686;2022-09-09T05:59:36;16.5;75
70682;SHT31;58261;48.228;11.686;2022-09-09T06:02:56;16.5;75
70682;SHT31;58261;48.228;11.686;2022-09-09T06:06:17;16.5;75
70682;SHT31;58261;48.228;11.686;2022-09-09T06:09:36;16.5;75
70682;SHT31;58261;48.228;11.686;2022-09-09T06:12:56;16.5;75
70682;SHT31;58261;48.228;11.686;2022-09-09T06:16:17;16.5;76
70682;SHT31;58261;48.228;11.686;2022-09-09T06:19:36;16.5;76
70682;SHT31;58261;48.228;11.686;2022-09-09T06:22:56;16.5;76
70682;SHT31;58261;48.228;11.686;2022-09-09T06:26:17;16.6;76
70682;SHT31;58261;48.228;11.686;2022-09-09T06:29:36;16.6;76
70682;SHT31;58261;48.228;11.686;2022-09-09T06:32:56;16.6;76
70682;SHT31;58261;48.228;11.686;2022-09-09T06:36:17;16.6;76
70682;SHT31;58261;48.228;11.686;2022-09-09T06:39:36;16.6;76
70682;SHT31;58261;48.228;11.686;2022-09-09T06:42:58;16.6;76
70682;SHT31;58261;48.228;11.686;2022-09-09T06:46:17;16.6;76
70682;SHT31;58261;48.228;11.686;2022-09-09T06:49:36;16.6;76
70682;SHT31;58261;48.228;11.686;2022-09-09T06:52:56;16.6;76
70682;SHT31;58261;48.228;11.686;2022-09-09T06:56:18;16.6;76
70682;SHT31;58261;48.228;11.686;2022-09-09T06:59:36;16.6;75
70682;SHT31;58261;48.228;11.686;2022-09-09T07:02:56;16.6;75
70682;SHT31;58261;48.228;11.686;2022-09-09T07:06:18;16.6;75
70682;SHT31;58261;48.228;11.686;2022-09-09T07:09:36;16.6;75
70682;SHT31;58261;48.228;11.686;2022-09-09T07:12:56;16.6;75
70682;SHT31;58261;48.228;11.686;2022-09-09T07:16:17;16.6;75
70682;SHT31;58261;48.228;11.686;2022-09-09T07:19:36;16.7;75
70682;SHT31;58261;48.228;11.686;2022-09-09T07:22:56;16.7;75
70682;SHT31;58261;48.228;11.686;2022-09-09T07:26:17;16.7;75
70682;SHT31;58261;48.228;11.686;2022-09-09T07:29:36;16.7;75
70682;SHT31;58261;48.228;11.686;2022-09-09T07:32:56;16.6;76
70682;SHT31;58261;48.228;11.686;2022-09-09T07:36:18;16.6;76
70682;SHT31;58261;48.228;11.686;2022-09-09T07:39:36;16.6;76
70682;SHT31;58261;48.228;11.686;2022-09-09T07:42:56;16.5;78
70682;SHT31;58261;48.228;11.686;2022-09-09T07:46:17;16.5;78
70682;SHT31;58261;48.228;11.686;2022-09-09T07:49:37;16.5;78
70682;SHT31;58261;48.228;11.686;2022-09-09T07:52:56;16.3;79
70682;SHT31;58261;48.228;11.686;2022-09-09T07:56:17;16.3;79
70682;SHT31;58261;48.228;11.686;2022-09-09T07:59:36;16.3;79
70682;SHT31;58261;48.228;11.686;2022-09-09T08:02:56;16.3;79
70682;SHT31;58261;48.228;11.686;2022-09-09T08:06:16;16.4;80
70682;SHT31;58261;48.228;11.686;2022-09-09T08:09:36;16.4;80
70682;SHT31;58261;48.228;11.686;2022-09-09T08:12:56;16.4;80
70682;SHT31;58261;48.228;11.686;2022-09-09T08:16:17;16.3;81
70682;SHT31;58261;48.228;11.686;2022-09-09T08:19:36;16.3;81
70682;SHT31;58261;48.228;11.686;2022-09-09T08:22:56;16.3;81
70682;SHT31;58261;48.228;11.686;2022-09-09T08:26:17;16.6;80
70682;SHT31;58261;48.228;11.686;2022-09-09T08:29:36;16.6;80
70682;SHT31;58261;48.228;11.686;2022-09-09T08:32:56;16.6;80
70682;SHT31;58261;48.228;11.686;2022-09-09T08:36:17;16.7;80
70682;SHT31;58261;48.228;11.686;2022-09-09T08:39:36;16.7;80
70682;SHT31;58261;48.228;11.686;2022-09-09T08:42:56;16.7;80
70682;SHT31;58261;48.228;11.686;2022-09-09T08:46:18;16.7;80
70682;SHT31;58261;48.228;11.686;2022-09-09T08:49:40;16.7;80
70682;SHT31;58261;48.228;11.686;2022-09-09T08:52:59;16.7;80
70682;SHT31;58261;48.228;11.686;2022-09-09T08:56:18;16.7;80
70682;SHT31;58261;48.228;11.686;2022-09-09T08:59:37;16.8;80
70682;SHT31;58261;48.228;11.686;2022-09-09T09:02:59;16.8;80
70682;SHT31;58261;48.228;11.686;2022-09-09T09:06:21;16.8;80
70682;SHT31;58261;48.228;11.686;2022-09-09T09:09:38;16.9;80
70682;SHT31;58261;48.228;11.686;2022-09-09T09:12:57;16.9;80
70682;SHT31;58261;48.228;11.686;2022-09-09T09:16:19;16.9;80
70682;SHT31;58261;48.228;11.686;2022-09-09T09:19:38;17.0;80
70682;SHT31;58261;48.228;11.686;2022-09-09T09:22:57;17.0;80
70682;SHT31;58261;48.228;11.686;2022-09-09T09:26:17;17.0;80
70682;SHT31;58261;48.228;11.686;2022-09-09T09:29:37;17.0;80
70682;SHT31;58261;48.228;11.686;2022-09-09T09:32:58;17.0;81
70682;SHT31;58261;48.228;11.686;2022-09-09T09:36:17;17.0;81
70682;SHT31;58261;48.228;11.686;2022-09-09T09:39:37;17.0;81
70682;SHT31;58261;48.228;11.686;2022-09-09T09:42:57;17.1;81
70682;SHT31;58261;48.228;11.686;2022-09-09T09:46:19;17.1;81
70682;SHT31;58261;48.228;11.686;2022-09-09T09:49:37;17.1;81
70682;SHT31;58261;48.228;11.686;2022-09-09T09:52:57;17.2;81
70682;SHT31;58261;48.228;11.686;2022-09-09T09:56:17;17.2;81
70682;SHT31;58261;48.228;11.686;2022-09-09T09:59:37;17.2;81
70682;SHT31;58261;48.228;11.686;2022-09-09T10:02:57;17.3;81
70682;SHT31;58261;48.228;11.686;2022-09-09T10:06:17;17.3;81
70682;SHT31;58261;48.228;11.686;2022-09-09T10:09:37;17.3;81
70682;SHT31;58261;48.228;11.686;2022-09-09T10:12:59;17.3;81
70682;SHT31;58261;48.228;11.686;2022-09-09T10:16:20;17.3;80
70682;SHT31;58261;48.228;11.686;2022-09-09T10:19:37;17.3;80
70682;SHT31;58261;48.228;11.686;2022-09-09T10:22:59;17.3;80
70682;SHT31;58261;48.228;11.686;2022-09-09T10:26:20;17.3;80
70682;SHT31;58261;48.228;11.686;2022-09-09T10:29:43;17.3;80
70682;SHT31;58261;48.228;11.686;2022-09-09T10:32:58;17.3;80
70682;SHT31;58261;48.228;11.686;2022-09-09T10:36:18;17.4;80
70682;SHT31;58261;48.228;11.686;2022-09-09T10:39:37;17.4;80
70682;SHT31;58261;48.228;11.686;2022-09-09T10:42:59;17.4;80
70682;SHT31;58261;48.228;11.686;2022-09-09T10:46:18;17.4;80
70682;SHT31;58261;48.228;11.686;2022-09-09T10:49:43;17.4;80
70682;SHT31;58261;48.228;11.686;2022-09-09T10:52:59;17.4;80
70682;SHT31;58261;48.228;11.686;2022-09-09T10:56:17;17.4;80
70682;SHT31;58261;48.228;11.686;2022-09-09T10:59:38;17.5;78
70682;SHT31;58261;48.228;11.686;2022-09-09T11:02:58;17.5;78
70682;SHT31;58261;48.228;11.686;2022-09-09T11:06:17;17.5;78
70682;SHT31;58261;48.228;11.686;2022-09-09T11:09:38;17.6;78
70682;SHT31;58261;48.228;11.686;2022-09-09T11:12:59;17.6;78
70682;SHT31;58261;48.228;11.686;2022-09-09T11:16:20;17.6;78
70682;SHT31;58261;48.228;11.686;2022-09-09T11:19:37;17.7;75
70682;SHT31;58261;48.228;11.686;2022-09-09T11:22:58;17.7;75
70682;SHT31;58261;48.228;11.686;2022-09-09T11:26:27;17.7;75
70682;SHT31;58261;48.228;11.686;2022-09-09T11:33:00;17.8;74
70682;SHT31;58261;48.228;11.686;2022-09-09T11:39:44;17.8;74
70682;SHT31;58261;48.228;11.686;2022-09-09T11:43:01;18.0;75
70682;SHT31;58261;48.228;11.686;2022-09-09T11:46:17;18.0;75
70682;SHT31;58261;48.228;11.686;2022-09-09T11:49:39;18.0;75
70682;SHT31;58261;48.228;11.686;2022-09-09T11:59:37;18.2;72
70682;SHT31;58261;48.228;11.686;2022-09-09T12:02:57;18.3;71
70682;SHT31;58261;48.228;11.686;2022-09-09T12:06:18;18.3;71
70682;SHT31;58261;48.228;11.686;2022-09-09T12:09:43;18.3;71
70682;SHT31;58261;48.228;11.686;2022-09-09T12:19:37;18.4;70
70682;SHT31;58261;48.228;11.686;2022-09-09T12:23:02;18.4;70
70682;SHT31;58261;48.228;11.686;2022-09-09T12:26:21;18.5;70
70682;SHT31;58261;48.228;11.686;2022-09-09T12:29:38;18.5;70
70682;SHT31;58261;48.228;11.686;2022-09-09T12:33:00;18.5;70
70682;SHT31;58261;48.228;11.686;2022-09-09T12:36:17;18.5;68
70682;SHT31;58261;48.228;11.686;2022-09-09T12:39:37;18.5;68
70682;SHT31;58261;48.228;11.686;2022-09-09T12:42:57;18.5;68
70682;SHT31;58261;48.228;11.686;2022-09-09T12:46:21;18.5;69
70682;SHT31;58261;48.228;11.686;2022-09-09T12:49:38;18.5;69
70682;SHT31;58261;48.228;11.686;2022-09-09T12:52:57;18.5;69
70682;SHT31;58261;48.228;11.686;2022-09-09T12:56:18;18.5;69
70682;SHT31;58261;48.228;11.686;2022-09-09T12:59:37;18.5;69
70682;SHT31;58261;48.228;11.686;2022-09-09T13:02:57;18.5;69
70682;SHT31;58261;48.228;11.686;2022-09-09T13:06:19;18.5;69
70682;SHT31;58261;48.228;11.686;2022-09-09T13:09:37;18.6;68
70682;SHT31;58261;48.228;11.686;2022-09-09T13:12:57;18.6;68
70682;SHT31;58261;48.228;11.686;2022-09-09T13:16:18;18.6;68
70682;SHT31;58261;48.228;11.686;2022-09-09T13:19:37;18.6;68
70682;SHT31;58261;48.228;11.686;2022-09-09T13:22:57;18.6;68
70682;SHT31;58261;48.228;11.686;2022-09-09T13:26:21;18.6;68
70682;SHT31;58261;48.228;11.686;2022-09-09T13:29:37;18.7;69
70682;SHT31;58261;48.228;11.686;2022-09-09T13:33:01;18.7;69
70682;SHT31;58261;48.228;11.686;2022-09-09T13:36:17;18.7;69
70682;SHT31;58261;48.228;11.686;2022-09-09T13:39:37;18.7;69
70682;SHT31;58261;48.228;11.686;2022-09-09T13:42:57;18.8;68
70682;SHT31;58261;48.228;11.686;2022-09-09T13:46:23;18.8;68
70682;SHT31;58261;48.228;11.686;2022-09-09T13:49:37;18.8;68
70682;SHT31;58261;48.228;11.686;2022-09-09T13:52:58;18.9;68
70682;SHT31;58261;48.228;11.686;2022-09-09T13:56:17;18.9;68
70682;SHT31;58261;48.228;11.686;2022-09-09T13:59:37;18.9;68
70682;SHT31;58261;48.228;11.686;2022-09-09T14:02:57;18.9;67
70682;SHT31;58261;48.228;11.686;2022-09-09T14:06:17;18.9;67
70682;SHT31;58261;48.228;11.686;2022-09-09T14:09:37;18.9;67
70682;SHT31;58261;48.228;11.686;2022-09-09T14:12:57;18.8;66
70682;SHT31;58261;48.228;11.686;2022-09-09T14:16:17;18.8;66
70682;SHT31;58261;48.228;11.686;2022-09-09T14:19:37;18.8;66
70682;SHT31;58261;48.228;11.686;2022-09-09T14:22:57;18.8;66
70682;SHT31;58261;48.228;11.686;2022-09-09T14:26:17;18.8;67
70682;SHT31;58261;48.228;11.686;2022-09-09T14:29:37;18.8;67
70682;SHT31;58261;48.228;11.686;2022-09-09T14:32:57;18.8;67
70682;SHT31;58261;48.228;11.686;2022-09-09T14:36:17;18.7;69
70682;SHT31;58261;48.228;11.686;2022-09-09T14:39:37;18.7;69
70682;SHT31;58261;48.228;11.686;2022-09-09T14:42:57;18.7;69
70682;SHT31;58261;48.228;11.686;2022-09-09T14:46:18;18.6;68
70682;SHT31;58261;48.228;11.686;2022-09-09T14:49:37;18.6;68
70682;SHT31;58261;48.228;11.686;2022-09-09T14:52:57;18.6;68
70682;SHT31;58261;48.228;11.686;2022-09-09T14:56:18;18.5;67
70682;SHT31;58261;48.228;11.686;2022-09-09T14:59:37;18.5;67
70682;SHT31;58261;48.228;11.686;2022-09-09T15:02:57;18.5;67
70682;SHT31;58261;48.228;11.686;2022-09-09T15:06:18;18.5;67
70682;SHT31;58261;48.228;11.686;2022-09-09T15:09:37;18.5;66
70682;SHT31;58261;48.228;11.686;2022-09-09T15:12:57;18.5;66
70682;SHT31;58261;48.228;11.686;2022-09-09T15:16:17;18.5;66
70682;SHT31;58261;48.228;11.686;2022-09-09T15:19:37;18.4;67
70682;SHT31;58261;48.228;11.686;2022-09-09T15:22:57;18.4;67
70682;SHT31;58261;48.228;11.686;2022-09-09T15:26:18;18.4;67
70682;SHT31;58261;48.228;11.686;2022-09-09T15:29:37;18.4;68
70682;SHT31;58261;48.228;11.686;2022-09-09T15:32:57;18.4;68
70682;SHT31;58261;48.228;11.686;2022-09-09T15:36:18;18.4;68
70682;SHT31;58261;48.228;11.686;2022-09-09T15:39:37;18.4;68
70682;SHT31;58261;48.228;11.686;2022-09-09T15:42:57;18.4;68
70682;SHT31;58261;48.228;11.686;2022-09-09T15:46:21;18.4;68
70682;SHT31;58261;48.228;11.686;2022-09-09T15:49:37;18.4;68
70682;SHT31;58261;48.228;11.686;2022-09-09T15:52:57;18.5;67
70682;SHT31;58261;48.228;11.686;2022-09-09T15:56:17;18.5;67
70682;SHT31;58261;48.228;11.686;2022-09-09T15:59:37;18.5;67
70682;SHT31;58261;48.228;11.686;2022-09-09T16:02:57;18.8;67
70682;SHT31;58261;48.228;11.686;2022-09-09T16:06:18;18.8;67
70682;SHT31;58261;48.228;11.686;2022-09-09T16:09:37;18.8;67
70682;SHT31;58261;48.228;11.686;2022-09-09T16:12:57;18.9;65
70682;SHT31;58261;48.228;11.686;2022-09-09T16:16:18;18.9;65
70682;SHT31;58261;48.228;11.686;2022-09-09T16:19:37;18.9;65
70682;SHT31;58261;48.228;11.686;2022-09-09T16:22:57;18.9;65
70682;SHT31;58261;48.228;11.686;2022-09-09T16:26:18;18.8;64
70682;SHT31;58261;48.228;11.686;2022-09-09T16:29:37;18.8;64
70682;SHT31;58261;48.228;11.686;2022-09-09T16:32:57;18.8;64
70682;SHT31;58261;48.228;11.686;2022-09-09T16:36:18;18.7;64
70682;SHT31;58261;48.228;11.686;2022-09-09T16:39:37;18.7;64
70682;SHT31;58261;48.228;11.686;2022-09-09T16:42:57;18.7;64
70682;SHT31;58261;48.228;11.686;2022-09-09T16:46:18;18.7;64
70682;SHT31;58261;48.228;11.686;2022-09-09T16:49:37;18.7;64
70682;SHT31;58261;48.228;11.686;2022-09-09T16:52:57;18.7;64
70682;SHT31;58261;48.228;11.686;2022-09-09T16:56:18;18.7;64
70682;SHT31;58261;48.228;11.686;2022-09-09T16:59:37;18.7;64
70682;SHT31;58261;48.228;11.686;2022-09-09T17:02:57;18.7;64
70682;SHT31;58261;48.228;11.686;2022-09-09T17:06:17;18.7;64
70682;SHT31;58261;48.228;11.686;2022-09-09T17:09:37;18.7;64
70682;SHT31;58261;48.228;11.686;2022-09-09T17:12:57;18.7;64
70682;SHT31;58261;48.228;11.686;2022-09-09T17:16:18;18.7;64
70682;SHT31;58261;48.228;11.686;2022-09-09T17:19:37;18.6;63
70682;SHT31;58261;48.228;11.686;2022-09-09T17:22:57;18.6;63
70682;SHT31;58261;48.228;11.686;2022-09-09T17:26:18;18.6;63
70682;SHT31;58261;48.228;11.686;2022-09-09T17:29:37;18.5;64
70682;SHT31;58261;48.228;11.686;2022-09-09T17:32:57;18.5;64
70682;SHT31;58261;48.228;11.686;2022-09-09T17:36:18;18.5;64
70682;SHT31;58261;48.228;11.686;2022-09-09T17:39:37;18.4;64
70682;SHT31;58261;48.228;11.686;2022-09-09T17:42:57;18.4;64
70682;SHT31;58261;48.228;11.686;2022-09-09T17:46:18;18.4;64
70682;SHT31;58261;48.228;11.686;2022-09-09T17:49:37;18.4;64
70682;SHT31;58261;48.228;11.686;2022-09-09T17:52:57;18.2;64
70682;SHT31;58261;48.228;11.686;2022-09-09T17:56:18;18.2;64
70682;SHT31;58261;48.228;11.686;2022-09-09T17:59:37;18.2;64
70682;SHT31;58261;48.228;11.686;2022-09-09T18:02:57;18.1;65
70682;SHT31;58261;48.228;11.686;2022-09-09T18:06:18;18.1;65
70682;SHT31;58261;48.228;11.686;2022-09-09T18:09:37;18.1;65
70682;SHT31;58261;48.228;11.686;2022-09-09T18:12:57;18.0;65
70682;SHT31;58261;48.228;11.686;2022-09-09T18:16:18;18.0;65
70682;SHT31;58261;48.228;11.686;2022-09-09T18:19:37;18.0;65
70682;SHT31;58261;48.228;11.686;2022-09-09T18:22:57;17.8;66
70682;SHT31;58261;48.228;11.686;2022-09-09T18:26:18;17.8;66
70682;SHT31;58261;48.228;11.686;2022-09-09T18:29:37;17.8;66
70682;SHT31;58261;48.228;11.686;2022-09-09T18:32:57;17.8;66
70682;SHT31;58261;48.228;11.686;2022-09-09T18:36:19;17.7;67
70682;SHT31;58261;48.228;11.686;2022-09-09T18:39:37;17.7;67
70682;SHT31;58261;48.228;11.686;2022-09-09T18:42:57;17.7;67
70682;SHT31;58261;48.228;11.686;2022-09-09T18:46:18;17.6;67
70682;SHT31;58261;48.228;11.686;2022-09-09T18:49:37;17.6;67
70682;SHT31;58261;48.228;11.686;2022-09-09T18:52:57;17.6;67
70682;SHT31;58261;48.228;11.686;2022-09-09T18:56:17;17.5;68
70682;SHT31;58261;48.228;11.686;2022-09-09T18:59:37;17.5;68
70682;SHT31;58261;48.228;11.686;2022-09-09T19:02:57;17.5;68
70682;SHT31;58261;48.228;11.686;2022-09-09T19:06:19;17.5;68
70682;SHT31;58261;48.228;11.686;2022-09-09T19:09:38;17.4;69
70682;SHT31;58261;48.228;11.686;2022-09-09T19:12:57;17.4;69
70682;SHT31;58261;48.228;11.686;2022-09-09T19:16:18;17.4;69
70682;SHT31;58261;48.228;11.686;2022-09-09T19:19:37;17.3;69
70682;SHT31;58261;48.228;11.686;2022-09-09T19:22:57;17.3;69
70682;SHT31;58261;48.228;11.686;2022-09-09T19:26:17;17.3;69
70682;SHT31;58261;48.228;11.686;2022-09-09T19:29:37;16.8;72
70682;SHT31;58261;48.228;11.686;2022-09-09T19:32:57;16.8;72
70682;SHT31;58261;48.228;11.686;2022-09-09T19:36:17;16.8;72
70682;SHT31;58261;48.228;11.686;2022-09-09T19:39:38;17.0;73
70682;SHT31;58261;48.228;11.686;2022-09-09T19:42:58;17.0;73
70682;SHT31;58261;48.228;11.686;2022-09-09T19:46:18;17.0;73
70682;SHT31;58261;48.228;11.686;2022-09-09T19:49:38;17.0;73
70682;SHT31;58261;48.228;11.686;2022-09-09T19:52:58;17.0;75
70682;SHT31;58261;48.228;11.686;2022-09-09T19:56:19;17.0;75
70682;SHT31;58261;48.228;11.686;2022-09-09T19:59:38;17.0;75
70682;SHT31;58261;48.228;11.686;2022-09-09T20:02:58;17.0;77
70682;SHT31;58261;48.228;11.686;2022-09-09T20:06:18;17.0;77
70682;SHT31;58261;48.228;11.686;2022-09-09T20:09:38;17.0;77
70682;SHT31;58261;48.228;11.686;2022-09-09T20:12:58;16.9;77
70682;SHT31;58261;48.228;11.686;2022-09-09T20:16:18;16.9;77
70682;SHT31;58261;48.228;11.686;2022-09-09T20:19:38;16.9;77
70682;SHT31;58261;48.228;11.686;2022-09-09T20:22:58;16.8;77
70682;SHT31;58261;48.228;11.686;2022-09-09T20:26:18;16.8;77
70682;SHT31;58261;48.228;11.686;2022-09-09T20:29:38;16.8;77
70682;SHT31;58261;48.228;11.686;2022-09-09T20:32:58;16.8;77
70682;SHT31;58261;48.228;11.686;2022-09-09T20:36:18;16.7;76
70682;SHT31;58261;48.228;11.686;2022-09-09T20:39:38;16.7;76
70682;SHT31;58261;48.228;11.686;2022-09-09T20:42:58;16.7;76
70682;SHT31;58261;48.228;11.686;2022-09-09T20:46:19;16.6;75
70682;SHT31;58261;48.228;11.686;2022-09-09T20:49:38;16.6;75
70682;SHT31;58261;48.228;11.686;2022-09-09T20:52:58;16.6;75
70682;SHT31;58261;48.228;11.686;2022-09-09T20:56:18;16.4;75
70682;SHT31;58261;48.228;11.686;2022-09-09T20:59:38;16.4;75
70682;SHT31;58261;48.228;11.686;2022-09-09T21:02:58;16.4;75
70682;SHT31;58261;48.228;11.686;2022-09-09T21:06:18;16.3;74
70682;SHT31;58261;48.228;11.686;2022-09-09T21:09:38;16.3;74
70682;SHT31;58261;48.228;11.686;2022-09-09T21:12:58;16.3;74
70682;SHT31;58261;48.228;11.686;2022-09-09T21:16:18;16.3;74
70682;SHT31;58261;48.228;11.686;2022-09-09T21:19:38;16.3;74
70682;SHT31;58261;48.228;11.686;2022-09-09T21:22:58;16.3;74
70682;SHT31;58261;48.228;11.686;2022-09-09T21:26:18;16.3;74
70682;SHT31;58261;48.228;11.686;2022-09-09T21:29:38;16.2;75
70682;SHT31;58261;48.228;11.686;2022-09-09T21:32:58;16.2;75
70682;SHT31;58261;48.228;11.686;2022-09-09T21:36:18;16.2;75
70682;SHT31;58261;48.228;11.686;2022-09-09T21:39:38;16.2;74
70682;SHT31;58261;48.228;11.686;2022-09-09T21:42:58;16.2;74
70682;SHT31;58261;48.228;11.686;2022-09-09T21:46:18;16.2;74
70682;SHT31;58261;48.228;11.686;2022-09-09T21:49:38;16.1;73
70682;SHT31;58261;48.228;11.686;2022-09-09T21:52:58;16.1;73
70682;SHT31;58261;48.228;11.686;2022-09-09T21:56:18;16.1;73
70682;SHT31;58261;48.228;11.686;2022-09-09T21:59:35;16.1;73
70682;SHT31;58261;48.228;11.686;2022-09-09T22:02:55;16.1;73
70682;SHT31;58261;48.228;11.686;2022-09-09T22:06:16;16.1;73
70682;SHT31;58261;48.228;11.686;2022-09-09T22:09:35;16.1;73
70682;SHT31;58261;48.228;11.686;2022-09-09T22:12:55;16.1;74
70682;SHT31;58261;48.228;11.686;2022-09-09T22:16:16;16.1;74
70682;SHT31;58261;48.228;11.686;2022-09-09T22:19:35;16.1;74
70682;SHT31;58261;48.228;11.686;2022-09-09T22:22:55;16.1;75
70682;SHT31;58261;48.228;11.686;2022-09-09T22:26:15;16.1;75
70682;SHT31;58261;48.228;11.686;2022-09-09T22:29:35;16.1;75